Time;durP1;ratioP1;P1;durP2;ratioP2;P2;SDS_P1;SDS_P2;PMS_P1;PMS_P2;Temp;Humidity;BMP_temperature;BMP_pressure;BME280_temperature;BME280_humidity;BME280_pressure;Samples;Min_cycle;Max_cycle;Signal;HPM_P1;HPM_P2
2023/03/10 00:01:58;;;;;;;2.30;1.50;;;;;;;;;;5024479;28;20180;-81
2023/03/10 00:04:23;;;;;;;4.00;1.40;;;;;;;;;;5026767;28;20182;-81
2023/03/10 00:06:49;;;;;;;2.03;1.73;;;;;;;;;;5021454;28;20257;-81
2023/03/10 00:09:14;;;;;;;2.13;1.70;;;;;;;;;;5028928;28;20187;-81
2023/03/10 00:11:39;;;;;;;5.30;1.50;;;;;;;;;;5023345;28;20200;-81
2023/03/10 00:14:04;;;;;;;3.53;1.50;;;;;;;;;;5023917;28;20202;-81
2023/03/10 00:16:30;;;;;;;2.73;1.90;;;;;;;;;;5043202;28;20178;-81
2023/03/10 00:18:56;;;;;;;1.80;1.50;;;;;;;;;;5013959;28;20243;-81
2023/03/10 00:21:25;;;;;;;2.27;1.70;;;;;;;;;;4998826;28;20180;-81
2023/03/10 00:23:51;;;;;;;2.00;1.77;;;;;;;;;;5004805;28;20180;-81
2023/03/10 00:26:17;;;;;;;3.80;1.93;;;;;;;;;;5004787;28;20187;-81
2023/03/10 00:28:43;;;;;;;4.60;1.77;;;;;;;;;;5000268;28;20251;-81
2023/03/10 00:31:13;;;;;;;4.23;1.90;;;;;;;;;;5002411;28;20271;-81
2023/03/10 00:33:38;;;;;;;3.27;1.77;;;;;;;;;;5000179;28;20171;-82
2023/03/10 00:36:05;;;;;;;2.77;1.47;;;;;;;;;;5004309;28;20176;-81
2023/03/10 00:38:31;;;;;;;4.10;1.83;;;;;;;;;;4995097;28;20183;-81
2023/03/10 00:40:57;;;;;;;2.90;1.97;;;;;;;;;;5011462;28;20241;-81
2023/03/10 00:43:23;;;;;;;4.63;2.10;;;;;;;;;;5003747;28;20183;-81
2023/03/10 00:45:48;;;;;;;1.80;1.50;;;;;;;;;;5001175;28;20241;-81
2023/03/10 00:48:13;;;;;;;3.50;1.73;;;;;;;;;;5002741;28;20178;-81
2023/03/10 00:50:39;;;;;;;2.90;1.80;;;;;;;;;;5004199;28;20246;-81
2023/03/10 00:53:04;;;;;;;1.67;1.57;;;;;;;;;;5003410;28;20183;-81
2023/03/10 00:55:29;;;;;;;5.83;2.00;;;;;;;;;;5007099;28;20184;-81
2023/03/10 00:57:55;;;;;;;4.97;1.90;;;;;;;;;;5004243;28;20245;-81
2023/03/10 01:00:21;;;;;;;6.23;2.37;;;;;;;;;;5000399;28;20202;-81
2023/03/10 01:02:46;;;;;;;3.80;2.10;;;;;;;;;;5008008;28;20180;-81
2023/03/10 01:05:13;;;;;;;3.33;2.40;;;;;;;;;;5005448;28;20179;-81
2023/03/10 01:07:38;;;;;;;2.03;1.50;;;;;;;;;;5002503;28;20180;-81
2023/03/10 01:10:03;;;;;;;3.13;1.40;;;;;;;;;;5002341;28;20188;-81
2023/03/10 01:12:29;;;;;;;3.93;1.40;;;;;;;;;;5003338;28;20203;-81
2023/03/10 01:14:54;;;;;;;2.33;1.40;;;;;;;;;;5005329;28;20197;-81
2023/03/10 01:17:19;;;;;;;2.37;1.53;;;;;;;;;;4998084;28;20211;-81
2023/03/10 01:19:44;;;;;;;1.60;1.47;;;;;;;;;;4999351;28;20289;-81
2023/03/10 01:22:10;;;;;;;3.10;1.60;;;;;;;;;;4997332;28;20183;-81
2023/03/10 01:24:35;;;;;;;2.40;1.50;;;;;;;;;;5003178;28;20226;-81
2023/03/10 01:27:00;;;;;;;4.87;1.77;;;;;;;;;;5004684;28;20175;-81
2023/03/10 01:29:25;;;;;;;3.73;1.57;;;;;;;;;;5003744;28;20245;-81
2023/03/10 01:31:51;;;;;;;1.53;1.43;;;;;;;;;;5005469;28;20282;-81
2023/03/10 01:34:16;;;;;;;3.90;1.60;;;;;;;;;;4998182;28;20189;-81
2023/03/10 01:36:41;;;;;;;2.63;1.30;;;;;;;;;;5025399;28;20207;-81
2023/03/10 01:39:06;;;;;;;1.43;1.20;;;;;;;;;;5002002;28;20289;-81
2023/03/10 01:41:36;;;;;;;2.80;1.87;;;;;;;;;;5006914;28;20190;-81
2023/03/10 01:44:03;;;;;;;2.07;1.50;;;;;;;;;;5002654;28;20205;-81
2023/03/10 01:46:28;;;;;;;1.37;1.10;;;;;;;;;;5021476;28;20180;-81
2023/03/10 01:48:55;;;;;;;2.20;1.30;;;;;;;;;;5011364;28;20187;-82
2023/03/10 01:51:21;;;;;;;1.80;1.70;;;;;;;;;;5001745;28;20176;-82
2023/03/10 01:53:46;;;;;;;1.73;1.40;;;;;;;;;;5005566;28;20179;-81
2023/03/10 01:56:12;;;;;;;1.37;1.10;;;;;;;;;;4999556;28;20202;-82
2023/03/10 01:58:39;;;;;;;1.17;1.10;;;;;;;;;;5006678;28;20167;-81
2023/03/10 02:01:05;;;;;;;1.67;1.10;;;;;;;;;;5004224;28;20271;-81
2023/03/10 02:03:36;;;;;;;2.73;1.50;;;;;;;;;;5000682;28;20179;-82
2023/03/10 02:06:03;;;;;;;1.40;1.30;;;;;;;;;;5020313;28;20243;-81
2023/03/10 02:08:37;;;;;;;2.50;1.13;;;;;;;;;;5001269;28;20171;-81
2023/03/10 02:11:02;;;;;;;1.33;1.23;;;;;;;;;;5002803;28;20201;-81
2023/03/10 02:13:28;;;;;;;1.60;1.30;;;;;;;;;;5003453;28;20188;-81
2023/03/10 02:15:53;;;;;;;1.53;1.20;;;;;;;;;;5001790;28;20179;-81
2023/03/10 02:18:20;;;;;;;1.53;0.90;;;;;;;;;;5005788;28;20189;-81
2023/03/10 02:21:10;;;;;;;1.37;1.00;;;;;;;;;;5023218;28;20226;-81
2023/03/10 02:23:42;;;;;;;1.33;0.90;;;;;;;;;;5028973;28;20181;-81
2023/03/10 02:26:20;;;;;;;1.30;1.20;;;;;;;;;;5017932;28;20248;-81
2023/03/10 02:28:45;;;;;;;1.43;1.33;;;;;;;;;;5027509;28;20209;-81
2023/03/10 02:31:12;;;;;;;1.70;1.30;;;;;;;;;;5024774;28;20211;-81
2023/03/10 02:33:37;;;;;;;1.77;1.00;;;;;;;;;;5027677;28;20202;-81
2023/03/10 02:36:10;;;;;;;0.90;0.90;;;;;;;;;;5020182;28;20263;-81
2023/03/10 02:38:36;;;;;;;1.43;0.83;;;;;;;;;;5022605;28;20216;-81
2023/03/10 02:41:01;;;;;;;2.57;1.30;;;;;;;;;;5037619;28;20307;-81
2023/03/10 02:43:31;;;;;;;2.27;1.00;;;;;;;;;;5040127;28;20205;-81
2023/03/10 02:46:01;;;;;;;1.33;0.70;;;;;;;;;;5021921;28;20178;-81
2023/03/10 02:48:36;;;;;;;1.53;0.70;;;;;;;;;;5023818;28;20189;-82
2023/03/10 02:51:03;;;;;;;0.87;0.63;;;;;;;;;;5044384;28;20209;-81
2023/03/10 02:53:31;;;;;;;0.87;0.80;;;;;;;;;;5022132;28;20178;-81
2023/03/10 02:55:57;;;;;;;0.60;0.60;;;;;;;;;;5019475;28;20175;-81
2023/03/10 02:58:23;;;;;;;0.67;0.67;;;;;;;;;;5019236;28;20232;-81
2023/03/10 03:00:49;;;;;;;0.67;0.60;;;;;;;;;;5020415;28;20221;-81
2023/03/10 03:03:16;;;;;;;0.73;0.60;;;;;;;;;;5026917;28;20174;-81
2023/03/10 03:05:42;;;;;;;0.93;0.80;;;;;;;;;;5024464;28;20189;-81
2023/03/10 03:08:07;;;;;;;0.50;0.50;;;;;;;;;;5026497;28;20178;-81
2023/03/10 03:10:33;;;;;;;0.90;0.70;;;;;;;;;;5030466;28;20183;-81
2023/03/10 03:12:58;;;;;;;0.60;0.60;;;;;;;;;;5026567;28;20343;-81
2023/03/10 03:15:24;;;;;;;1.93;0.80;;;;;;;;;;5026622;28;20188;-82
2023/03/10 03:17:49;;;;;;;4.20;1.00;;;;;;;;;;5023227;28;20179;-81
2023/03/10 03:20:15;;;;;;;1.47;0.70;;;;;;;;;;5009253;28;20238;-81
2023/03/10 03:22:44;;;;;;;1.00;0.70;;;;;;;;;;5005661;28;20180;-81
2023/03/10 03:25:10;;;;;;;0.40;0.40;;;;;;;;;;5009585;28;20180;-81
2023/03/10 03:27:35;;;;;;;0.80;0.80;;;;;;;;;;5008659;28;20181;-81
2023/03/10 03:30:01;;;;;;;1.33;0.60;;;;;;;;;;5005730;28;20186;-81
2023/03/10 03:32:26;;;;;;;0.60;0.60;;;;;;;;;;5008475;28;20183;-82
2023/03/10 03:34:51;;;;;;;0.80;0.70;;;;;;;;;;5007198;28;20179;-81
2023/03/10 03:37:17;;;;;;;0.60;0.60;;;;;;;;;;5008636;28;20240;-81
2023/03/10 03:39:42;;;;;;;0.70;0.70;;;;;;;;;;5011767;28;20227;-81
2023/03/10 03:42:07;;;;;;;0.60;0.60;;;;;;;;;;5025874;28;20261;-81
2023/03/10 03:44:32;;;;;;;0.80;0.80;;;;;;;;;;5008641;28;20178;-81
2023/03/10 03:46:58;;;;;;;0.83;0.67;;;;;;;;;;5004731;28;20183;-81
2023/03/10 03:49:23;;;;;;;1.20;0.60;;;;;;;;;;5012737;28;20189;-81
2023/03/10 03:51:48;;;;;;;0.63;0.43;;;;;;;;;;5008857;28;20276;-81
2023/03/10 03:54:13;;;;;;;0.47;0.47;;;;;;;;;;5007131;28;20202;-81
2023/03/10 03:56:39;;;;;;;0.80;0.80;;;;;;;;;;5015546;28;20202;-81
2023/03/10 03:59:04;;;;;;;0.70;0.50;;;;;;;;;;5004124;28;20203;-81
2023/03/10 04:01:30;;;;;;;0.87;0.70;;;;;;;;;;5007362;28;20183;-81
2023/03/10 04:03:55;;;;;;;0.37;0.37;;;;;;;;;;5006284;28;20397;-81
2023/03/10 04:06:20;;;;;;;0.60;0.60;;;;;;;;;;5010385;28;20186;-81
2023/03/10 04:08:47;;;;;;;0.70;0.70;;;;;;;;;;5006802;28;20190;-81
2023/03/10 04:11:12;;;;;;;1.47;0.63;;;;;;;;;;4999961;28;20186;-81
2023/03/10 04:13:38;;;;;;;0.20;0.20;;;;;;;;;;5024946;28;20185;-81
2023/03/10 04:16:03;;;;;;;2.60;0.90;;;;;;;;;;5009201;28;20191;-81
2023/03/10 04:18:31;;;;;;;1.13;1.03;;;;;;;;;;5002942;28;20175;-81
2023/03/10 04:20:57;;;;;;;1.00;0.77;;;;;;;;;;5026655;28;20210;-82
2023/03/10 04:23:22;;;;;;;1.07;0.97;;;;;;;;;;5043228;28;20266;-81
2023/03/10 04:25:48;;;;;;;2.27;1.60;;;;;;;;;;5028092;28;20182;-81
2023/03/10 04:28:13;;;;;;;1.07;0.67;;;;;;;;;;5021075;28;20183;-81
2023/03/10 04:30:40;;;;;;;0.87;0.87;;;;;;;;;;5025864;28;20187;-81
2023/03/10 04:33:06;;;;;;;0.77;0.67;;;;;;;;;;5026356;28;20182;-81
2023/03/10 04:35:31;;;;;;;0.83;0.70;;;;;;;;;;5020794;28;20298;-81
2023/03/10 04:37:57;;;;;;;2.13;1.00;;;;;;;;;;5040617;28;20190;-81
2023/03/10 04:40:22;;;;;;;1.87;0.80;;;;;;;;;;5028031;28;20209;-81
2023/03/10 04:42:47;;;;;;;0.77;0.60;;;;;;;;;;5020732;28;20178;-81
2023/03/10 04:45:12;;;;;;;0.47;0.47;;;;;;;;;;5038043;28;20174;-81
2023/03/10 04:47:38;;;;;;;1.30;0.93;;;;;;;;;;5024605;28;20209;-81
2023/03/10 04:50:04;;;;;;;1.53;1.00;;;;;;;;;;5020958;28;20254;-81
2023/03/10 04:52:29;;;;;;;1.40;0.93;;;;;;;;;;5018105;28;20203;-81
2023/03/10 04:54:54;;;;;;;0.60;0.60;;;;;;;;;;5026850;28;20187;-81
2023/03/10 04:57:20;;;;;;;1.60;0.70;;;;;;;;;;5027028;28;20178;-81
2023/03/10 04:59:45;;;;;;;0.83;0.63;;;;;;;;;;5043302;28;20190;-81
2023/03/10 05:02:10;;;;;;;1.27;0.80;;;;;;;;;;5022838;28;20182;-81
2023/03/10 05:04:35;;;;;;;1.07;0.80;;;;;;;;;;5034353;28;20185;-81
2023/03/10 05:07:01;;;;;;;0.60;0.60;;;;;;;;;;5021413;28;20174;-81
2023/03/10 05:09:26;;;;;;;1.27;0.70;;;;;;;;;;5018255;28;20189;-81
2023/03/10 05:11:51;;;;;;;1.57;0.90;;;;;;;;;;5030392;28;20194;-81
2023/03/10 05:14:17;;;;;;;1.53;1.00;;;;;;;;;;5030500;28;20232;-81
2023/03/10 05:16:42;;;;;;;1.43;0.63;;;;;;;;;;5028797;28;20189;-81
2023/03/10 05:19:08;;;;;;;3.53;1.00;;;;;;;;;;5029238;28;20268;-81
2023/03/10 05:21:33;;;;;;;2.20;1.20;;;;;;;;;;5033319;28;20252;-81
2023/03/10 05:23:59;;;;;;;0.80;0.70;;;;;;;;;;5042586;28;20170;-81
2023/03/10 05:26:24;;;;;;;3.13;1.17;;;;;;;;;;5018941;28;20181;-81
2023/03/10 05:28:49;;;;;;;1.43;0.90;;;;;;;;;;5018995;28;20210;-81
2023/03/10 05:31:15;;;;;;;1.83;0.93;;;;;;;;;;5021620;28;20224;-81
2023/03/10 05:33:40;;;;;;;1.93;1.17;;;;;;;;;;5039060;28;20220;-81
2023/03/10 05:36:07;;;;;;;3.27;1.13;;;;;;;;;;5021985;28;20175;-81
2023/03/10 05:38:33;;;;;;;2.30;1.00;;;;;;;;;;5027501;28;20186;-81
2023/03/10 05:40:58;;;;;;;1.43;1.07;;;;;;;;;;5025785;28;20208;-81
2023/03/10 05:43:23;;;;;;;1.63;1.07;;;;;;;;;;5023389;28;20187;-81
2023/03/10 05:45:55;;;;;;;4.33;2.13;;;;;;;;;;5046647;28;20236;-81
2023/03/10 05:48:21;;;;;;;2.90;1.30;;;;;;;;;;5045535;28;20189;-81
2023/03/10 05:50:55;;;;;;;2.50;1.30;;;;;;;;;;5020249;28;20178;-83
2023/03/10 05:53:20;;;;;;;2.60;1.13;;;;;;;;;;5023194;28;20280;-80
2023/03/10 05:55:45;;;;;;;2.57;1.23;;;;;;;;;;5025090;28;20317;-81
2023/03/10 05:58:10;;;;;;;5.50;1.43;;;;;;;;;;5022174;28;20280;-81
2023/03/10 06:00:35;;;;;;;2.13;1.00;;;;;;;;;;5022516;28;20285;-81
2023/03/10 06:03:03;;;;;;;4.90;1.30;;;;;;;;;;5040989;28;20256;-81
2023/03/10 06:05:28;;;;;;;4.53;2.90;;;;;;;;;;5027091;28;20199;-81
2023/03/10 06:07:53;;;;;;;1.60;1.30;;;;;;;;;;5025710;28;20264;-80
2023/03/10 06:10:18;;;;;;;3.10;1.27;;;;;;;;;;5021751;28;20183;-81
2023/03/10 06:12:44;;;;;;;3.20;1.03;;;;;;;;;;5022446;28;20202;-80
2023/03/10 06:15:09;;;;;;;2.10;1.90;;;;;;;;;;5021596;28;20196;-80
2023/03/10 06:17:34;;;;;;;0.80;0.80;;;;;;;;;;5029168;28;20197;-80
2023/03/10 06:20:00;;;;;;;3.33;1.30;;;;;;;;;;5027431;28;20233;-81
2023/03/10 06:22:26;;;;;;;1.70;1.60;;;;;;;;;;5021592;28;20179;-81
2023/03/10 06:24:51;;;;;;;1.50;0.93;;;;;;;;;;5019445;28;20257;-80
2023/03/10 06:27:16;;;;;;;0.90;0.90;;;;;;;;;;5025583;28;20194;-80
2023/03/10 06:29:42;;;;;;;1.17;0.57;;;;;;;;;;5027536;28;20194;-80
2023/03/10 06:32:07;;;;;;;0.87;0.77;;;;;;;;;;5023074;28;20182;-80
2023/03/10 06:34:32;;;;;;;1.13;0.80;;;;;;;;;;5019038;28;20217;-80
2023/03/10 06:36:57;;;;;;;1.10;0.70;;;;;;;;;;5020305;28;20179;-80
2023/03/10 06:39:22;;;;;;;0.47;0.47;;;;;;;;;;5023575;28;20201;-80
2023/03/10 06:41:48;;;;;;;0.20;0.20;;;;;;;;;;5029887;28;20232;-81
2023/03/10 06:44:17;;;;;;;1.47;0.60;;;;;;;;;;5025677;28;20186;-80
2023/03/10 06:46:43;;;;;;;0.47;0.47;;;;;;;;;;5031508;28;20276;-80
2023/03/10 06:49:08;;;;;;;0.50;0.50;;;;;;;;;;5022685;28;20270;-80
2023/03/10 06:51:33;;;;;;;1.27;0.83;;;;;;;;;;5028253;28;20182;-80
2023/03/10 06:53:58;;;;;;;0.50;0.50;;;;;;;;;;5023088;28;20178;-81
2023/03/10 06:56:24;;;;;;;0.80;0.80;;;;;;;;;;5039808;28;20254;-80
2023/03/10 06:58:49;;;;;;;0.60;0.60;;;;;;;;;;5043334;28;20228;-81
2023/03/10 07:01:20;;;;;;;2.77;0.70;;;;;;;;;;5031641;28;20240;-81
2023/03/10 07:03:45;;;;;;;0.50;0.40;;;;;;;;;;5025356;28;20182;-81
2023/03/10 07:06:11;;;;;;;0.60;0.60;;;;;;;;;;5027418;28;20186;-81
2023/03/10 07:08:36;;;;;;;0.70;0.70;;;;;;;;;;5030465;28;20182;-81
2023/03/10 07:11:01;;;;;;;0.80;0.70;;;;;;;;;;5032539;28;20182;-81
2023/03/10 07:13:26;;;;;;;0.70;0.47;;;;;;;;;;5026366;28;20175;-81
2023/03/10 07:15:51;;;;;;;0.60;0.60;;;;;;;;;;5024707;28;20223;-81
2023/03/10 07:18:17;;;;;;;0.37;0.37;;;;;;;;;;5026820;28;20185;-81
2023/03/10 07:20:46;;;;;;;2.20;1.20;;;;;;;;;;5030842;28;20203;-81
2023/03/10 07:23:11;;;;;;;3.57;1.27;;;;;;;;;;5028604;28;20177;-81
2023/03/10 07:25:37;;;;;;;2.63;1.40;;;;;;;;;;5024552;28;20225;-81
2023/03/10 07:28:03;;;;;;;3.70;2.27;;;;;;;;;;5025311;28;20178;-81
2023/03/10 07:30:28;;;;;;;4.67;2.60;;;;;;;;;;5021981;28;20204;-81
2023/03/10 07:32:54;;;;;;;4.33;1.27;;;;;;;;;;5024614;28;20192;-81
2023/03/10 07:35:19;;;;;;;1.63;1.30;;;;;;;;;;5023428;28;20178;-81
2023/03/10 07:37:44;;;;;;;1.20;0.87;;;;;;;;;;5028044;28;20217;-81
2023/03/10 07:40:10;;;;;;;2.20;1.53;;;;;;;;;;5041580;28;20232;-81
2023/03/10 07:42:35;;;;;;;1.10;0.80;;;;;;;;;;5028000;28;20192;-81
2023/03/10 07:45:00;;;;;;;1.50;0.70;;;;;;;;;;5025179;28;20172;-81
2023/03/10 07:47:26;;;;;;;0.70;0.70;;;;;;;;;;5019770;28;20194;-81
2023/03/10 07:49:51;;;;;;;2.50;1.73;;;;;;;;;;5024426;28;20221;-81
2023/03/10 07:52:17;;;;;;;2.47;1.37;;;;;;;;;;5024903;28;20270;-81
2023/03/10 07:54:45;;;;;;;0.67;0.67;;;;;;;;;;5026061;28;20210;-81
2023/03/10 07:57:11;;;;;;;1.50;1.00;;;;;;;;;;5023177;28;20186;-81
2023/03/10 07:59:36;;;;;;;1.17;0.70;;;;;;;;;;5018375;28;20285;-81
2023/03/10 08:02:04;;;;;;;2.13;0.90;;;;;;;;;;5033096;28;20174;-81
2023/03/10 08:04:30;;;;;;;1.53;0.83;;;;;;;;;;5023375;28;20187;-81
2023/03/10 08:06:55;;;;;;;1.50;0.93;;;;;;;;;;5048791;28;20178;-81
2023/03/10 08:09:20;;;;;;;1.27;0.93;;;;;;;;;;5028075;28;20215;-81
2023/03/10 08:11:45;;;;;;;4.87;1.40;;;;;;;;;;5033632;28;20204;-81
2023/03/10 08:14:11;;;;;;;2.37;1.30;;;;;;;;;;5032087;28;20193;-81
2023/03/10 08:16:36;;;;;;;1.63;0.90;;;;;;;;;;5022262;28;20175;-81
2023/03/10 08:19:02;;;;;;;2.00;0.90;;;;;;;;;;5042613;28;20218;-81
2023/03/10 08:21:27;;;;;;;4.40;1.90;;;;;;;;;;5025884;28;20309;-81
2023/03/10 08:23:52;;;;;;;1.77;1.03;;;;;;;;;;5025764;28;20171;-81
2023/03/10 08:26:17;;;;;;;5.33;1.17;;;;;;;;;;5007339;28;20181;-81
2023/03/10 08:28:43;;;;;;;3.83;1.57;;;;;;;;;;4998699;28;20180;-81
2023/03/10 08:31:15;;;;;;;6.00;1.40;;;;;;;;;;5002511;28;20182;-81
2023/03/10 08:33:42;;;;;;;3.27;1.43;;;;;;;;;;5003455;28;20321;-81
2023/03/10 08:36:18;;;;;;;3.70;1.43;;;;;;;;;;5008858;28;20182;-81
2023/03/10 08:38:43;;;;;;;4.53;1.30;;;;;;;;;;5004533;28;20182;-82
2023/03/10 08:41:35;;;;;;;3.53;1.17;;;;;;;;;;5023605;28;20196;-81
2023/03/10 08:44:00;;;;;;;4.97;1.73;;;;;;;;;;5005050;28;20190;-82
2023/03/10 08:46:27;;;;;;;3.90;1.67;;;;;;;;;;5007641;28;20180;-82
2023/03/10 08:48:52;;;;;;;3.70;1.60;;;;;;;;;;5007095;28;20212;-82
2023/03/10 08:51:18;;;;;;;6.80;1.63;;;;;;;;;;5005126;28;20217;-82
2023/03/10 08:53:45;;;;;;;7.27;2.30;;;;;;;;;;5025700;28;20245;-82
2023/03/10 08:56:11;;;;;;;4.03;1.40;;;;;;;;;;4998905;28;20186;-82
2023/03/10 08:58:36;;;;;;;4.13;2.20;;;;;;;;;;5003330;28;20178;-82
2023/03/10 09:01:01;;;;;;;2.80;1.90;;;;;;;;;;5008872;28;20209;-82
2023/03/10 09:03:26;;;;;;;2.73;1.30;;;;;;;;;;5007357;28;20175;-82
2023/03/10 09:05:54;;;;;;;3.80;1.40;;;;;;;;;;5004598;28;20167;-82
2023/03/10 09:08:19;;;;;;;1.47;1.17;;;;;;;;;;5010826;28;20183;-82
2023/03/10 09:10:44;;;;;;;3.63;2.33;;;;;;;;;;5003493;28;20225;-82
2023/03/10 09:13:10;;;;;;;2.83;1.83;;;;;;;;;;5001659;28;20203;-81
2023/03/10 09:15:39;;;;;;;3.10;1.30;;;;;;;;;;5027082;28;20175;-82
2023/03/10 09:18:05;;;;;;;3.17;1.50;;;;;;;;;;5003923;28;20188;-81
2023/03/10 09:20:30;;;;;;;2.37;1.80;;;;;;;;;;5004160;28;20226;-82
2023/03/10 09:22:56;;;;;;;2.37;1.70;;;;;;;;;;5003142;28;20241;-82
2023/03/10 09:25:21;;;;;;;3.17;2.87;;;;;;;;;;5002379;28;20179;-81
2023/03/10 09:27:47;;;;;;;3.70;2.73;;;;;;;;;;5005250;28;20186;-82
2023/03/10 09:30:12;;;;;;;3.43;1.70;;;;;;;;;;5007996;28;20268;-82
2023/03/10 09:32:38;;;;;;;1.57;1.00;;;;;;;;;;5001234;28;20184;-82
2023/03/10 09:35:04;;;;;;;1.53;1.43;;;;;;;;;;5002238;28;20275;-82
2023/03/10 09:37:30;;;;;;;5.97;2.10;;;;;;;;;;5010182;28;20218;-82
2023/03/10 09:39:55;;;;;;;2.37;2.00;;;;;;;;;;4998941;28;20237;-82
2023/03/10 09:42:41;;;;;;;3.80;1.77;;;;;;;;;;5017522;28;20268;-82
2023/03/10 09:45:17;;;;;;;2.80;1.10;;;;;;;;;;5021371;28;20191;-82
2023/03/10 09:47:43;;;;;;;3.50;1.13;;;;;;;;;;5004875;28;20173;-82
2023/03/10 09:50:21;;;;;;;0.83;0.77;;;;;;;;;;5005158;28;20186;-82
2023/03/10 09:52:58;;;;;;;3.13;0.80;;;;;;;;;;5000735;28;20207;-82
2023/03/10 09:55:32;;;;;;;2.67;2.13;;;;;;;;;;5001560;28;20188;-82
2023/03/10 09:57:57;;;;;;;3.47;1.80;;;;;;;;;;5024324;28;20179;-82
2023/03/10 10:00:24;;;;;;;1.57;1.47;;;;;;;;;;5004330;28;20208;-82
2023/03/10 10:02:54;;;;;;;3.33;2.23;;;;;;;;;;5002598;28;20198;-82
2023/03/10 10:05:22;;;;;;;2.77;1.50;;;;;;;;;;4997067;28;20178;-82
2023/03/10 10:07:50;;;;;;;8.73;5.93;;;;;;;;;;5018633;28;20180;-81
2023/03/10 10:10:23;;;;;;;6.07;3.53;;;;;;;;;;5024668;28;20183;-82
2023/03/10 10:12:49;;;;;;;3.17;2.00;;;;;;;;;;4996322;28;20328;-82
2023/03/10 10:15:15;;;;;;;2.60;1.13;;;;;;;;;;5007835;28;20256;-82
2023/03/10 10:18:04;;;;;;;2.13;1.30;;;;;;;;;;5022585;28;20320;-82
2023/03/10 10:20:29;;;;;;;1.00;0.60;;;;;;;;;;5002940;28;20230;-82
2023/03/10 10:22:54;;;;;;;0.97;0.93;;;;;;;;;;4995400;28;20190;-82
2023/03/10 10:25:22;;;;;;;1.77;1.67;;;;;;;;;;4998599;28;20241;-82
2023/03/10 10:27:51;;;;;;;1.00;0.90;;;;;;;;;;5013933;28;20179;-82
2023/03/10 10:30:34;;;;;;;1.47;1.27;;;;;;;;;;5004794;28;20243;-82
2023/03/10 10:33:00;;;;;;;1.70;1.50;;;;;;;;;;5005769;28;20188;-82
2023/03/10 10:35:27;;;;;;;1.50;0.70;;;;;;;;;;5001168;28;20195;-81
2023/03/10 10:38:08;;;;;;;1.43;0.60;;;;;;;;;;5007455;28;20214;-82
2023/03/10 10:40:34;;;;;;;0.60;0.60;;;;;;;;;;5025035;28;20212;-82
2023/03/10 10:43:00;;;;;;;0.23;0.23;;;;;;;;;;5008174;28;20186;-82
2023/03/10 10:45:28;;;;;;;0.60;0.60;;;;;;;;;;5001345;28;20196;-82
2023/03/10 10:47:54;;;;;;;0.40;0.40;;;;;;;;;;5000444;28;20243;-82
2023/03/10 10:50:25;;;;;;;2.47;2.10;;;;;;;;;;5003483;28;20282;-82
2023/03/10 10:52:52;;;;;;;1.57;1.20;;;;;;;;;;5019130;28;20282;-82
2023/03/10 10:55:23;;;;;;;4.70;3.60;;;;;;;;;;5008883;28;20277;-82
2023/03/10 10:57:55;;;;;;;0.93;0.70;;;;;;;;;;5007528;28;20187;-82
2023/03/10 11:00:31;;;;;;;0.90;0.60;;;;;;;;;;5001487;28;20265;-82
2023/03/10 11:02:57;;;;;;;4.27;2.97;;;;;;;;;;5019888;28;20242;-82
2023/03/10 11:05:37;;;;;;;4.20;3.10;;;;;;;;;;5009347;28;20208;-82
2023/03/10 11:08:34;;;;;;;4.97;3.23;;;;;;;;;;5017982;28;20216;-82
2023/03/10 11:11:01;;;;;;;4.40;3.20;;;;;;;;;;5001442;28;20203;-82
2023/03/10 11:13:47;;;;;;;6.63;5.23;;;;;;;;;;5018725;28;20264;-82
2023/03/10 11:16:20;;;;;;;3.63;3.30;;;;;;;;;;4956577;28;20258;-82
2023/03/10 11:18:54;;;;;;;9.50;6.23;;;;;;;;;;4998264;28;20227;-82
2023/03/10 11:21:27;;;;;;;9.33;5.07;;;;;;;;;;5000614;28;20224;-82
2023/03/10 11:24:02;;;;;;;0.70;0.40;;;;;;;;;;5005199;28;20190;-82
2023/03/10 11:26:27;;;;;;;4.80;3.80;;;;;;;;;;5015100;28;20262;-82
2023/03/10 11:29:11;;;;;;;2.43;1.93;;;;;;;;;;5021661;28;20184;-82
2023/03/10 11:31:48;;;;;;;2.97;2.60;;;;;;;;;;5026528;28;20175;-82
2023/03/10 11:34:18;;;;;;;3.37;2.73;;;;;;;;;;5001124;28;20206;-82
2023/03/10 11:36:46;;;;;;;1.10;0.80;;;;;;;;;;5007990;28;20175;-82
2023/03/10 11:39:24;;;;;;;1.37;1.27;;;;;;;;;;5007180;28;20195;-82
2023/03/10 11:41:52;;;;;;;0.87;0.50;;;;;;;;;;5010088;28;20190;-82
2023/03/10 11:44:22;;;;;;;1.30;1.20;;;;;;;;;;5014057;28;20184;-82
2023/03/10 11:47:23;;;;;;;2.37;1.53;;;;;;;;;;5002858;28;20197;-82
2023/03/10 11:49:53;;;;;;;0.87;0.87;;;;;;;;;;4932711;29;20194;-82
2023/03/10 11:52:19;;;;;;;0.73;0.73;;;;;;;;;;4916541;29;20204;-82
2023/03/10 11:54:50;;;;;;;2.60;0.97;;;;;;;;;;4914202;29;20219;-82
2023/03/10 11:57:17;;;;;;;5.30;2.73;;;;;;;;;;4931710;29;20195;-82
2023/03/10 11:59:46;;;;;;;0.83;0.80;;;;;;;;;;4914409;29;20241;-82
2023/03/10 12:02:18;;;;;;;4.20;1.90;;;;;;;;;;4912331;29;20223;-82
2023/03/10 12:04:47;;;;;;;7.00;2.50;;;;;;;;;;4910828;29;20190;-82
2023/03/10 12:07:16;;;;;;;0.60;0.60;;;;;;;;;;4928416;29;20187;-82
2023/03/10 12:09:41;;;;;;;1.13;0.73;;;;;;;;;;4930429;29;20190;-82
2023/03/10 12:12:11;;;;;;;0.47;0.47;;;;;;;;;;4930706;29;20210;-82
2023/03/10 12:14:36;;;;;;;0.20;0.20;;;;;;;;;;4916225;29;20189;-82
2023/03/10 12:17:03;;;;;;;0.47;0.40;;;;;;;;;;4914181;29;20199;-82
2023/03/10 12:19:28;;;;;;;1.10;0.70;;;;;;;;;;4919089;28;20233;-82
2023/03/10 12:22:11;;;;;;;2.23;1.47;;;;;;;;;;4937499;28;20174;-82
2023/03/10 12:24:43;;;;;;;0.50;0.50;;;;;;;;;;5013636;28;20211;-82
2023/03/10 12:27:08;;;;;;;1.60;1.00;;;;;;;;;;5027974;28;20212;-82
2023/03/10 12:29:34;;;;;;;1.27;1.07;;;;;;;;;;5022994;28;20186;-82
2023/03/10 12:32:00;;;;;;;1.13;0.67;;;;;;;;;;5030127;28;20181;-82
2023/03/10 12:34:27;;;;;;;0.83;0.50;;;;;;;;;;5018696;28;20222;-82
2023/03/10 12:37:01;;;;;;;1.77;1.63;;;;;;;;;;5018107;28;20190;-82
2023/03/10 12:39:26;;;;;;;1.40;0.67;;;;;;;;;;5027658;28;20194;-82
2023/03/10 12:41:55;;;;;;;1.10;0.70;;;;;;;;;;5023264;28;20177;-82
2023/03/10 12:44:29;;;;;;;0.87;0.50;;;;;;;;;;5027995;28;20189;-82
2023/03/10 12:47:06;;;;;;;0.60;0.43;;;;;;;;;;5026980;28;20174;-82
2023/03/10 12:49:41;;;;;;;1.67;0.90;;;;;;;;;;5032553;28;20269;-82
2023/03/10 12:52:09;;;;;;;0.83;0.70;;;;;;;;;;5037065;28;20174;-82
2023/03/10 12:54:43;;;;;;;1.77;1.33;;;;;;;;;;5028167;28;20179;-82
2023/03/10 12:57:16;;;;;;;0.20;0.20;;;;;;;;;;5022710;28;20182;-81
2023/03/10 13:00:05;;;;;;;0.60;0.60;;;;;;;;;;5024809;28;20204;-81
2023/03/10 13:02:43;;;;;;;0.70;0.30;;;;;;;;;;5027552;28;20205;-82
2023/03/10 13:05:17;;;;;;;2.00;1.07;;;;;;;;;;5027262;28;20208;-82
2023/03/10 13:07:47;;;;;;;0.30;0.30;;;;;;;;;;5042893;28;20170;-82
2023/03/10 13:10:17;;;;;;;0.73;0.60;;;;;;;;;;5037450;28;20240;-82
2023/03/10 13:12:47;;;;;;;1.87;1.63;;;;;;;;;;5026855;28;20199;-82
2023/03/10 13:15:23;;;;;;;4.53;3.67;;;;;;;;;;5028662;28;20185;-82
2023/03/10 13:17:48;;;;;;;4.60;3.33;;;;;;;;;;5024114;28;20184;-82
2023/03/10 13:20:14;;;;;;;1.50;1.40;;;;;;;;;;5013168;28;20238;-82
2023/03/10 13:22:39;;;;;;;4.60;2.13;;;;;;;;;;5022392;28;20182;-82
2023/03/10 13:25:06;;;;;;;7.93;4.03;;;;;;;;;;5027362;28;20179;-82
2023/03/10 13:27:33;;;;;;;6.27;2.60;;;;;;;;;;5001473;28;20175;-82
2023/03/10 13:30:03;;;;;;;0.63;0.60;;;;;;;;;;5001850;28;20266;-88
2023/03/10 13:32:29;;;;;;;1.40;1.00;;;;;;;;;;5015055;28;20248;-78
2023/03/10 13:34:55;;;;;;;5.27;2.53;;;;;;;;;;5007315;28;20333;-78
2023/03/10 13:37:21;;;;;;;2.63;1.83;;;;;;;;;;5002660;28;20192;-78
2023/03/10 13:39:46;;;;;;;7.67;3.77;;;;;;;;;;5001670;28;20209;-78
2023/03/10 13:42:20;;;;;;;3.93;2.23;;;;;;;;;;5001270;28;20176;-78
2023/03/10 13:44:46;;;;;;;0.20;0.20;;;;;;;;;;5009129;28;20183;-78
2023/03/10 13:47:16;;;;;;;2.10;1.27;;;;;;;;;;5002067;28;20181;-78
2023/03/10 13:49:44;;;;;;;0.40;0.40;;;;;;;;;;5028351;28;20178;-78
2023/03/10 13:52:13;;;;;;;0.70;0.70;;;;;;;;;;5008981;28;20195;-78
2023/03/10 13:54:40;;;;;;;0.60;0.60;;;;;;;;;;5004102;28;20278;-77
2023/03/10 13:57:24;;;;;;;0.73;0.73;;;;;;;;;;5020932;28;20183;-78
2023/03/10 13:59:50;;;;;;;0.30;0.30;;;;;;;;;;5012271;28;20203;-78
2023/03/10 14:02:33;;;;;;;0.77;0.77;;;;;;;;;;5005555;28;20185;-78
2023/03/10 14:04:59;;;;;;;0.47;0.47;;;;;;;;;;4997139;28;20202;-78
2023/03/10 14:07:29;;;;;;;0.33;0.33;;;;;;;;;;5006690;28;20275;-78
2023/03/10 14:10:03;;;;;;;1.30;0.57;;;;;;;;;;5010490;28;20250;-77
2023/03/10 14:12:38;;;;;;;0.70;0.70;;;;;;;;;;5000839;28;20214;-79
2023/03/10 14:15:15;;;;;;;0.50;0.50;;;;;;;;;;4994652;28;20178;-78
2023/03/10 14:17:42;;;;;;;0.90;0.80;;;;;;;;;;4999695;28;20179;-78
2023/03/10 14:20:09;;;;;;;1.00;0.93;;;;;;;;;;5008697;28;20331;-78
2023/03/10 14:22:40;;;;;;;1.10;0.70;;;;;;;;;;5007639;28;20178;-78
2023/03/10 14:25:07;;;;;;;1.97;1.33;;;;;;;;;;5018181;28;20250;-78
2023/03/10 14:27:33;;;;;;;0.30;0.30;;;;;;;;;;5009217;28;20186;-78
2023/03/10 14:30:00;;;;;;;1.20;1.10;;;;;;;;;;4999614;28;20215;-78
2023/03/10 14:32:25;;;;;;;0.87;0.87;;;;;;;;;;5000924;28;20222;-78
2023/03/10 14:34:50;;;;;;;0.57;0.40;;;;;;;;;;5006609;28;20219;-78
2023/03/10 14:37:16;;;;;;;0.60;0.60;;;;;;;;;;5001313;28;20281;-78
2023/03/10 14:39:41;;;;;;;0.80;0.43;;;;;;;;;;5005970;28;20265;-78
2023/03/10 14:42:15;;;;;;;0.60;0.60;;;;;;;;;;5003786;28;20214;-78
2023/03/10 14:44:40;;;;;;;0.80;0.80;;;;;;;;;;5002189;28;20183;-78
2023/03/10 14:47:07;;;;;;;1.50;1.40;;;;;;;;;;5002776;28;20186;-78